createdAt,value
2019-05-03T00:02:27.224Z,66.20
2019-05-03T00:05:12.528Z,74.67
2019-05-03T00:07:43.966Z,68.07
2019-05-03T00:10:16.433Z,68.80
2019-05-03T00:12:48.388Z,72.90
2019-05-03T00:15:56.841Z,65.90
2019-05-03T00:18:28.244Z,67.60
2019-05-03T00:20:59.682Z,71.90
2019-05-03T00:23:32.331Z,76.13
2019-05-03T00:26:03.219Z,67.27
2019-05-03T00:28:34.728Z,65.33
2019-05-03T00:31:06.421Z,73.90
2019-05-03T00:33:38.799Z,71.83
2019-05-03T00:36:32.857Z,72.00
2019-05-03T00:39:17.082Z,75.90
2019-05-03T00:41:49.728Z,63.20
2019-05-03T00:44:22.228Z,72.00
2019-05-03T00:46:54.359Z,66.27
2019-05-03T00:49:26.150Z,72.50
2019-05-03T00:51:57.512Z,68.40
2019-05-03T00:54:28.818Z,66.00
2019-05-03T00:57:02.625Z,67.07
2019-05-03T00:59:34.119Z,62.23
2019-05-03T01:02:06.009Z,66.37
2019-05-03T01:04:37.592Z,65.50
2019-05-03T01:07:09.341Z,70.93
2019-05-03T01:09:42.423Z,64.30
2019-05-03T01:12:14.403Z,64.10
2019-05-03T01:14:47.625Z,69.87
2019-05-03T01:17:18.956Z,65.43
2019-05-03T01:19:52.012Z,67.90
2019-05-03T01:22:23.522Z,75.27
2019-05-03T01:24:55.207Z,67.33
2019-05-03T01:27:26.224Z,74.23
2019-05-03T01:29:57.261Z,68.73
2019-05-03T01:32:28.670Z,70.97
2019-05-03T01:34:59.381Z,71.53
2019-05-03T01:37:31.932Z,66.43
2019-05-03T01:40:04.068Z,75.83
2019-05-03T01:42:35.708Z,74.97
2019-05-03T01:45:06.456Z,70.70
2019-05-03T01:47:45.565Z,76.20
2019-05-03T01:50:24.023Z,67.70
2019-05-03T01:52:56.331Z,67.63
2019-05-03T01:55:46.657Z,67.60
2019-05-03T01:58:17.946Z,67.53
2019-05-03T02:00:48.997Z,68.40
2019-05-03T02:03:32.450Z,68.07
2019-05-03T02:06:03.452Z,63.20
2019-05-03T02:08:35.330Z,61.30
2019-05-03T02:11:06.084Z,68.97
2019-05-03T02:13:37.046Z,70.03
2019-05-03T02:16:08.516Z,63.03
2019-05-03T02:18:39.522Z,65.33
2019-05-03T02:21:12.194Z,64.90
2019-05-03T02:23:44.173Z,64.87
2019-05-03T02:26:16.071Z,63.20
2019-05-03T02:28:47.674Z,66.40
2019-05-03T02:31:18.657Z,65.40
2019-05-03T02:33:53.124Z,65.37
2019-05-03T02:36:23.631Z,65.57
2019-05-03T02:38:55.123Z,61.60
2019-05-03T02:41:26.110Z,63.03
2019-05-03T02:43:57.978Z,61.00
2019-05-03T02:46:39.607Z,64.10
2019-05-03T02:49:25.761Z,62.17
2019-05-03T02:51:56.999Z,59.60
2019-05-03T02:54:28.629Z,59.57
2019-05-03T02:56:59.645Z,54.23
2019-05-03T02:59:31.240Z,60.97
2019-05-03T03:02:02.919Z,60.27
2019-05-03T03:04:35.440Z,64.50
2019-05-03T03:07:07.907Z,63.77
2019-05-03T03:09:39.108Z,54.50
2019-05-03T03:12:11.083Z,68.37
2019-05-03T03:14:45.493Z,63.47
2019-05-03T03:17:19.311Z,59.53
2019-05-03T03:19:55.187Z,60.50
2019-05-03T03:22:26.377Z,66.00
2019-05-03T03:25:02.425Z,68.07
2019-05-03T03:27:36.101Z,71.77
2019-05-03T03:30:48.731Z,64.77
2019-05-03T03:33:19.483Z,57.40
2019-05-03T03:35:51.629Z,59.20
2019-05-03T03:38:25.895Z,61.10
2019-05-03T03:40:58.878Z,59.97
2019-05-03T03:43:31.008Z,63.17
2019-05-03T03:46:05.265Z,58.57
2019-05-03T03:48:36.463Z,59.87
2019-05-03T03:51:11.210Z,55.60
2019-05-03T03:53:46.512Z,59.50
2019-05-03T03:56:20.449Z,56.30
2019-05-03T03:58:55.561Z,61.57
2019-05-03T04:01:27.035Z,57.87
2019-05-03T04:03:59.039Z,56.63
2019-05-03T04:06:41.924Z,57.37
2019-05-03T04:09:15.973Z,59.57
2019-05-03T04:11:47.473Z,60.90
2019-05-03T04:14:25.405Z,67.10
2019-05-03T04:17:19.046Z,63.33
2019-05-03T04:19:52.358Z,66.23
2019-05-03T04:22:25.411Z,66.93
2019-05-03T04:24:57.082Z,59.03
2019-05-03T04:27:29.095Z,48.13
2019-05-03T04:30:00.928Z,39.83
2019-05-03T04:32:32.560Z,32.50
2019-05-03T04:35:05.391Z,37.93
2019-05-03T04:37:36.848Z,30.63
2019-05-03T04:40:08.059Z,30.77
2019-05-03T04:42:40.022Z,32.40
2019-05-03T04:45:11.786Z,29.13
2019-05-03T04:47:46.089Z,29.50
2019-05-03T04:50:17.073Z,28.80
2019-05-03T04:52:48.548Z,27.60
2019-05-03T04:55:19.945Z,27.07
2019-05-03T04:57:51.395Z,26.93
2019-05-03T05:00:25.369Z,29.50
2019-05-03T05:02:55.685Z,27.90
2019-05-03T05:05:27.800Z,23.63
2019-05-03T05:07:59.152Z,22.77
2019-05-03T05:10:30.426Z,25.60
2019-05-03T05:13:05.372Z,20.23
2019-05-03T05:15:36.739Z,20.90
2019-05-03T05:18:35.372Z,22.80
2019-05-03T05:21:22.241Z,26.17
2019-05-03T05:24:01.177Z,16.93
2019-05-03T05:27:09.872Z,19.27
2019-05-03T05:29:40.901Z,18.20
2019-05-03T05:32:14.437Z,22.83
2019-05-03T05:34:46.328Z,21.60
2019-05-03T05:37:18.247Z,22.63
2019-05-03T05:39:50.149Z,23.33
2019-05-03T05:42:21.188Z,29.17
2019-05-03T05:44:52.527Z,25.03
2019-05-03T05:47:54.697Z,22.17
2019-05-03T05:50:37.393Z,23.40
2019-05-03T05:53:08.664Z,22.90
2019-05-03T05:56:08.273Z,21.00
2019-05-03T05:58:45.014Z,24.20
2019-05-03T06:01:25.065Z,21.30
2019-05-03T06:03:57.038Z,22.47
2019-05-03T06:06:38.535Z,23.77
2019-05-03T06:09:22.273Z,26.90
2019-05-03T06:12:09.614Z,26.40
2019-05-03T06:14:54.461Z,21.60
2019-05-03T06:17:49.210Z,20.33
2019-05-03T06:20:45.435Z,17.60
2019-05-03T06:23:24.891Z,21.60
2019-05-03T06:25:58.291Z,21.83
2019-05-03T06:28:35.287Z,21.13
2019-05-03T06:31:29.122Z,15.60
2019-05-03T06:34:00.192Z,15.33
2019-05-03T06:36:31.499Z,14.03
2019-05-03T06:39:06.666Z,13.93
2019-05-03T06:41:37.199Z,14.23
2019-05-03T06:44:08.815Z,14.83
2019-05-03T06:46:47.782Z,12.40
2019-05-03T06:49:19.109Z,17.50
2019-05-03T06:51:51.016Z,16.50
2019-05-03T06:54:28.285Z,14.80
2019-05-03T06:56:55.637Z,13.13
2019-05-03T06:59:32.246Z,11.30
2019-05-03T07:02:28.352Z,11.23
2019-05-03T07:04:59.962Z,15.40
2019-05-03T07:07:48.745Z,12.13
2019-05-03T07:10:39.386Z,11.83
2019-05-03T07:13:11.007Z,9.80
2019-05-03T07:15:42.591Z,9.13
2019-05-03T07:18:15.757Z,9.43
2019-05-03T07:20:56.912Z,9.67
2019-05-03T07:23:27.736Z,11.43
2019-05-03T07:25:59.658Z,10.10
2019-05-03T07:28:44.370Z,9.13
2019-05-03T07:31:05.397Z,9.40
2019-05-03T07:33:37.011Z,13.60
2019-05-03T07:36:08.841Z,9.83
2019-05-03T07:38:40.087Z,12.07
2019-05-03T07:41:11.871Z,11.17
2019-05-03T07:43:45.068Z,12.40
2019-05-03T07:46:16.940Z,9.47
2019-05-03T07:48:48.863Z,10.07
2019-05-03T07:51:19.896Z,11.83
2019-05-03T07:53:51.493Z,14.47
2019-05-03T07:56:22.796Z,9.93
2019-05-03T07:59:00.538Z,8.13
2019-05-03T08:01:35.562Z,9.47
2019-05-03T08:04:07.209Z,8.93
2019-05-03T08:06:38.767Z,9.70
2019-05-03T08:09:11.585Z,9.23
2019-05-03T08:11:44.415Z,8.40
2019-05-03T08:14:18.054Z,8.40
2019-05-03T08:16:48.692Z,9.07
2019-05-03T08:19:23.358Z,8.67
2019-05-03T08:21:56.472Z,8.17
2019-05-03T08:24:27.367Z,8.10
2019-05-03T08:26:58.956Z,10.10
2019-05-03T08:29:30.552Z,8.00
2019-05-03T08:32:20.692Z,9.53
2019-05-03T08:35:09.445Z,10.53
2019-05-03T08:37:49.692Z,9.53
2019-05-03T08:40:21.535Z,9.30
2019-05-03T08:42:54.841Z,8.80
2019-05-03T08:45:26.141Z,10.40
2019-05-03T08:47:57.713Z,13.30
2019-05-03T08:50:29.315Z,8.10
2019-05-03T08:53:01.222Z,7.07
2019-05-03T08:55:35.042Z,11.30
2019-05-03T08:58:06.470Z,7.43
2019-05-03T09:00:40.203Z,9.00
2019-05-03T09:03:11.935Z,8.23
2019-05-03T09:05:45.870Z,7.20
2019-05-03T09:08:16.076Z,7.67
2019-05-03T09:10:54.565Z,10.73
2019-05-03T09:13:26.037Z,9.17
2019-05-03T09:15:57.673Z,8.47
2019-05-03T09:18:28.431Z,10.80
2019-05-03T09:21:00.000Z,7.93
2019-05-03T09:23:31.538Z,8.60
2019-05-03T09:26:04.640Z,8.37
2019-05-03T09:28:36.564Z,8.10
2019-05-03T09:31:07.592Z,8.17
2019-05-03T09:33:38.881Z,7.37
2019-05-03T09:36:09.901Z,9.93
2019-05-03T09:38:41.180Z,8.83
2019-05-03T09:41:14.833Z,13.50
2019-05-03T09:43:46.098Z,8.80
2019-05-03T09:46:17.891Z,9.93
2019-05-03T09:48:49.461Z,11.47
2019-05-03T09:51:22.170Z,12.13
2019-05-03T09:53:57.972Z,8.90
2019-05-03T09:56:55.323Z,10.77
2019-05-03T09:59:20.346Z,10.03
2019-05-03T10:01:52.203Z,9.17
2019-05-03T10:04:25.441Z,9.40
2019-05-03T10:06:56.255Z,8.93
2019-05-03T10:09:28.102Z,9.80
2019-05-03T10:12:00.466Z,9.20
2019-05-03T10:14:31.755Z,10.50
2019-05-03T10:17:11.933Z,9.53
2019-05-03T10:19:45.170Z,11.30
2019-05-03T10:22:17.226Z,10.33
2019-05-03T10:24:48.469Z,8.97
2019-05-03T10:27:20.405Z,11.07
2019-05-03T10:29:54.551Z,9.73
2019-05-03T10:32:35.501Z,8.97
2019-05-03T10:35:09.526Z,7.80
2019-05-03T10:37:40.804Z,10.30
2019-05-03T10:40:13.196Z,7.93
2019-05-03T10:42:44.578Z,8.83
2019-05-03T10:45:16.077Z,8.43
2019-05-03T10:47:47.829Z,8.83
2019-05-03T10:50:19.728Z,8.00
2019-05-03T10:53:00.011Z,7.73
2019-05-03T10:55:31.805Z,6.73
2019-05-03T10:58:10.670Z,6.50
2019-05-03T11:00:51.899Z,7.27
2019-05-03T11:03:17.764Z,6.87
2019-05-03T11:05:49.059Z,6.93
2019-05-03T11:08:20.074Z,5.83
2019-05-03T11:10:51.724Z,6.03
2019-05-03T11:13:22.955Z,5.47
2019-05-03T11:15:54.938Z,5.23
2019-05-03T11:18:25.734Z,6.73
2019-05-03T11:20:57.169Z,6.27
2019-05-03T11:23:29.011Z,6.80
2019-05-03T11:25:59.925Z,6.53
2019-05-03T11:28:31.388Z,6.40
2019-05-03T11:31:21.537Z,6.10
2019-05-03T11:33:55.331Z,6.10
2019-05-03T11:36:48.431Z,5.70
2019-05-03T11:39:20.211Z,5.50
2019-05-03T11:41:55.307Z,5.60
2019-05-03T11:44:39.465Z,5.30
2019-05-03T11:47:11.207Z,5.33
2019-05-03T11:49:42.587Z,4.17
2019-05-03T11:52:15.858Z,4.47
2019-05-03T11:54:47.451Z,4.10
2019-05-03T11:57:26.721Z,3.73
2019-05-03T11:59:58.348Z,4.60
2019-05-03T12:02:50.693Z,3.60
2019-05-03T12:05:24.870Z,6.90
2019-05-03T12:07:56.133Z,6.33
2019-05-03T12:10:44.912Z,5.53
2019-05-03T12:13:08.921Z,4.83
2019-05-03T12:15:40.663Z,4.57
2019-05-03T12:18:12.812Z,5.40
2019-05-03T12:20:47.245Z,4.50
2019-05-03T12:23:18.511Z,5.53
2019-05-03T12:25:51.242Z,6.70
2019-05-03T12:28:22.804Z,5.20
2019-05-03T12:30:54.282Z,5.23
2019-05-03T12:33:26.180Z,5.40
2019-05-03T12:35:57.965Z,5.37
2019-05-03T12:38:28.973Z,7.00
2019-05-03T12:41:01.141Z,7.67
2019-05-03T12:43:32.147Z,8.10
2019-05-03T12:46:05.083Z,7.73
2019-05-03T12:48:36.555Z,7.23
2019-05-03T12:51:08.805Z,7.70
2019-05-03T12:53:41.186Z,7.00
2019-05-03T12:56:16.146Z,6.40
2019-05-03T12:59:07.705Z,7.33
2019-05-03T13:02:10.338Z,6.60
2019-05-03T13:04:44.568Z,7.30
2019-05-03T13:07:28.039Z,7.83
2019-05-03T13:09:59.948Z,6.00
2019-05-03T13:12:31.590Z,6.20
2019-05-03T13:15:04.941Z,8.03
2019-05-03T13:17:37.768Z,6.60
2019-05-03T13:20:15.173Z,7.30
2019-05-03T13:22:46.239Z,7.80
2019-05-03T13:25:17.430Z,5.73
2019-05-03T13:27:48.983Z,5.40
2019-05-03T13:30:20.515Z,5.10
2019-05-03T13:32:51.228Z,5.27
2019-05-03T13:35:22.535Z,5.00
2019-05-03T13:37:55.645Z,5.57
2019-05-03T13:40:27.072Z,5.10
2019-05-03T13:43:03.538Z,3.93
2019-05-03T13:45:31.584Z,3.60
2019-05-03T13:48:04.962Z,4.53
2019-05-03T13:50:36.128Z,5.87
2019-05-03T13:53:07.389Z,5.93
2019-05-03T13:55:38.973Z,4.63
2019-05-03T13:58:10.212Z,5.20
2019-05-03T14:00:41.893Z,4.23
2019-05-03T14:03:15.308Z,3.90
2019-05-03T14:05:46.211Z,5.00
2019-05-03T14:08:17.222Z,6.10
2019-05-03T14:10:49.222Z,6.30
2019-05-03T14:13:20.621Z,5.10
2019-05-03T14:15:52.141Z,4.30
2019-05-03T14:18:25.630Z,5.17
2019-05-03T14:21:25.075Z,2.90
2019-05-03T14:24:12.706Z,3.50
2019-05-03T14:26:45.051Z,2.77
2019-05-03T14:29:16.779Z,2.50
2019-05-03T14:31:48.351Z,2.40
2019-05-03T14:34:20.116Z,2.03
2019-05-03T14:36:51.501Z,1.97
2019-05-03T14:39:25.181Z,1.60
2019-05-03T14:41:57.121Z,1.90
2019-05-03T14:44:28.914Z,2.20
2019-05-03T14:47:01.319Z,1.90
2019-05-03T14:49:34.609Z,2.50
2019-05-03T14:52:06.275Z,7.50
2019-05-03T14:54:39.856Z,2.50
2019-05-03T14:57:25.833Z,2.63
2019-05-03T15:00:17.402Z,2.90
2019-05-03T15:03:05.801Z,2.77
2019-05-03T15:05:37.662Z,3.03
2019-05-03T15:08:09.309Z,2.67
2019-05-03T15:10:41.135Z,2.80
2019-05-03T15:13:12.467Z,2.47
2019-05-03T15:15:45.150Z,2.93
2019-05-03T15:18:16.059Z,3.67
2019-05-03T15:20:47.047Z,4.10
2019-05-03T15:23:18.791Z,4.13
2019-05-03T15:25:50.744Z,4.53
2019-05-03T15:28:21.502Z,4.27
2019-05-03T15:30:55.091Z,4.30
2019-05-03T15:33:26.820Z,4.00
2019-05-03T15:35:58.467Z,4.40
2019-05-03T15:38:29.777Z,4.70
2019-05-03T15:41:00.827Z,4.40
2019-05-03T15:43:39.419Z,4.27
2019-05-03T15:46:29.306Z,3.97
2019-05-03T15:49:01.794Z,4.00
2019-05-03T15:51:33.675Z,4.27
2019-05-03T15:54:05.257Z,4.80
2019-05-03T15:56:37.532Z,4.80
2019-05-03T15:59:08.989Z,5.27
2019-05-03T16:01:40.940Z,4.63
2019-05-03T16:04:14.324Z,4.63
2019-05-03T16:06:45.402Z,4.87
2019-05-03T16:09:18.401Z,4.53
2019-05-03T16:11:49.789Z,4.50
2019-05-03T16:14:21.481Z,4.30
2019-05-03T16:16:54.633Z,6.30
2019-05-03T16:19:25.782Z,6.83
2019-05-03T16:21:57.064Z,4.80
2019-05-03T16:24:28.950Z,7.20
2019-05-03T16:27:24.794Z,5.20
2019-05-03T16:29:56.478Z,4.67
2019-05-03T16:32:29.371Z,5.10
2019-05-03T16:35:01.043Z,5.33
2019-05-03T16:37:34.444Z,5.83
2019-05-03T16:40:06.111Z,5.30
2019-05-03T16:42:38.000Z,6.40
2019-05-03T16:45:09.408Z,5.07
2019-05-03T16:47:40.664Z,4.47
2019-05-03T16:50:14.321Z,5.50
2019-05-03T16:52:45.710Z,5.80
2019-05-03T16:55:16.671Z,6.33
2019-05-03T16:57:48.081Z,6.17
2019-05-03T17:00:19.139Z,6.60
2019-05-03T17:02:50.413Z,6.10
2019-05-03T17:05:49.857Z,5.33
2019-05-03T17:08:35.750Z,5.57
2019-05-03T17:11:09.498Z,5.33
2019-05-03T17:13:41.485Z,4.50
2019-05-03T17:16:14.575Z,4.07
2019-05-03T17:18:45.973Z,4.30
2019-05-03T17:21:17.961Z,5.30
2019-05-03T17:23:49.300Z,4.70
2019-05-03T17:26:20.385Z,4.20
2019-05-03T17:28:51.693Z,5.00
2019-05-03T17:31:24.375Z,8.03
2019-05-03T17:33:56.881Z,4.60
2019-05-03T17:36:27.696Z,4.63
2019-05-03T17:39:04.515Z,4.33
2019-05-03T17:41:47.165Z,4.13
2019-05-03T17:44:25.286Z,4.40
2019-05-03T17:46:57.002Z,3.87
2019-05-03T17:49:28.048Z,5.10
2019-05-03T17:52:18.193Z,4.90
2019-05-03T17:55:08.531Z,4.00
2019-05-03T17:57:59.691Z,4.00
2019-05-03T18:00:49.683Z,3.70
2019-05-03T18:03:22.136Z,4.67
2019-05-03T18:06:04.954Z,6.40
2019-05-03T18:08:45.626Z,5.03
2019-05-03T18:11:20.624Z,4.30
2019-05-03T18:13:52.395Z,3.97
2019-05-03T18:16:24.418Z,4.73
2019-05-03T18:18:56.234Z,4.87
2019-05-03T18:21:28.103Z,4.23
2019-05-03T18:23:59.438Z,4.80
2019-05-03T18:26:31.012Z,4.83
2019-05-03T18:29:02.675Z,5.63
2019-05-03T18:31:34.220Z,5.53
2019-05-03T18:34:18.375Z,4.23
2019-05-03T18:36:38.697Z,7.63
2019-05-03T18:39:11.545Z,11.97
2019-05-03T18:41:45.939Z,8.90
2019-05-03T18:44:42.015Z,15.03
2019-05-03T18:47:25.428Z,7.00
2019-05-03T18:49:58.020Z,14.33
2019-05-03T18:52:29.592Z,7.50
2019-05-03T18:55:01.190Z,8.60
2019-05-03T18:57:33.116Z,5.60
2019-05-03T19:00:07.946Z,6.87
2019-05-03T19:02:37.907Z,6.40
2019-05-03T19:05:10.039Z,5.53
2019-05-03T19:07:57.659Z,5.37
2019-05-03T19:10:44.660Z,6.00
2019-05-03T19:13:20.767Z,5.00
2019-05-03T19:15:54.983Z,5.13
2019-05-03T19:18:30.634Z,6.90
2019-05-03T19:21:04.515Z,8.17
2019-05-03T19:23:36.227Z,6.90
2019-05-03T19:26:07.616Z,7.13
2019-05-03T19:28:39.055Z,7.40
2019-05-03T19:31:11.037Z,8.50
2019-05-03T19:33:42.878Z,7.57
2019-05-03T19:36:14.517Z,7.00
2019-05-03T19:38:46.271Z,6.63
2019-05-03T19:41:18.325Z,8.10
2019-05-03T19:43:49.627Z,7.40
2019-05-03T19:46:21.030Z,7.43
2019-05-03T19:48:54.576Z,6.73
2019-05-03T19:51:26.046Z,6.77
2019-05-03T19:53:57.755Z,7.07
2019-05-03T19:56:29.208Z,5.60
2019-05-03T19:59:04.736Z,5.57
2019-05-03T20:01:48.170Z,5.10
2019-05-03T20:04:36.347Z,6.27
2019-05-03T20:07:21.645Z,7.17
2019-05-03T20:09:54.415Z,9.50
2019-05-03T20:12:26.253Z,9.97
2019-05-03T20:14:58.049Z,8.97
2019-05-03T20:17:29.538Z,7.47
2019-05-03T20:20:01.076Z,6.60
2019-05-03T20:22:34.968Z,6.80
2019-05-03T20:25:07.453Z,12.53
2019-05-03T20:27:39.745Z,10.23
2019-05-03T20:30:11.613Z,5.53
2019-05-03T20:32:45.072Z,5.33
2019-05-03T20:35:19.167Z,4.50
2019-05-03T20:37:49.792Z,5.20
2019-05-03T20:40:25.516Z,6.20
2019-05-03T20:43:08.513Z,5.57
2019-05-03T20:46:10.361Z,5.10
2019-05-03T20:48:44.810Z,5.90
2019-05-03T20:51:17.632Z,6.70
2019-05-03T20:53:48.261Z,5.83
2019-05-03T20:56:19.252Z,5.93
2019-05-03T20:58:50.961Z,6.43
2019-05-03T21:01:22.197Z,5.83
2019-05-03T21:03:54.383Z,6.07
2019-05-03T21:06:34.851Z,6.50
2019-05-03T21:08:59.210Z,6.97
2019-05-03T21:11:30.796Z,6.00
2019-05-03T21:14:01.923Z,8.97
2019-05-03T21:16:51.409Z,7.30
2019-05-03T21:19:38.992Z,5.60
2019-05-03T21:22:14.871Z,5.80
2019-05-03T21:24:54.888Z,5.30
2019-05-03T21:27:26.472Z,5.60
2019-05-03T21:29:57.816Z,5.47
2019-05-03T21:32:29.478Z,4.77
2019-05-03T21:35:01.113Z,4.63
2019-05-03T21:37:32.397Z,4.90
2019-05-03T21:40:05.117Z,5.07
2019-05-03T21:42:36.895Z,4.93
2019-05-03T21:45:09.598Z,8.80
2019-05-03T21:47:55.894Z,4.50
2019-05-03T21:50:27.235Z,5.30
2019-05-03T21:53:05.817Z,5.17
2019-05-03T21:55:37.052Z,5.63
2019-05-03T21:58:09.082Z,5.60
2019-05-03T22:01:01.577Z,5.17
2019-05-03T22:03:35.346Z,5.27
2019-05-03T22:06:06.099Z,5.77
2019-05-03T22:08:37.471Z,5.73
2019-05-03T22:11:09.203Z,5.60
2019-05-03T22:13:40.844Z,6.13
2019-05-03T22:16:34.523Z,5.77
2019-05-03T22:19:06.727Z,6.53
2019-05-03T22:21:47.767Z,7.37
2019-05-03T22:24:38.368Z,6.10
2019-05-03T22:27:15.351Z,11.10
2019-05-03T22:29:46.364Z,6.67
2019-05-03T22:32:18.269Z,6.50
2019-05-03T22:34:49.611Z,6.40
2019-05-03T22:37:21.422Z,6.87
2019-05-03T22:39:54.878Z,7.00
2019-05-03T22:42:26.229Z,6.63
2019-05-03T22:44:58.381Z,6.87
2019-05-03T22:47:29.326Z,6.43
2019-05-03T22:50:00.898Z,7.97
2019-05-03T22:52:34.832Z,5.83
2019-05-03T22:55:05.969Z,7.37
2019-05-03T22:57:37.020Z,7.20
2019-05-03T23:00:08.520Z,6.73
2019-05-03T23:02:39.990Z,7.63
2019-05-03T23:05:11.019Z,7.70
2019-05-03T23:07:44.238Z,8.73
2019-05-03T23:10:17.414Z,9.43
2019-05-03T23:12:49.365Z,10.20
2019-05-03T23:15:20.429Z,14.23
2019-05-03T23:17:51.804Z,10.70
2019-05-03T23:20:34.340Z,9.70
2019-05-03T23:23:05.515Z,10.30
2019-05-03T23:25:37.013Z,11.30
2019-05-03T23:28:08.587Z,8.93
2019-05-03T23:30:39.588Z,10.03
2019-05-03T23:33:10.903Z,9.17
2019-05-03T23:35:44.364Z,8.03
2019-05-03T23:38:15.831Z,8.20
2019-05-03T23:40:47.835Z,10.07
2019-05-03T23:43:19.312Z,9.20
2019-05-03T23:45:50.295Z,10.07
2019-05-03T23:48:21.972Z,9.97
2019-05-03T23:50:55.152Z,8.67
2019-05-03T23:53:26.436Z,9.33
2019-05-03T23:56:05.191Z,9.27
2019-05-03T23:58:35.896Z,8.73
